createdAt,value
2022-08-30T00:01:03.052Z,102101.91
2022-08-30T00:03:38.640Z,102105.50
2022-08-30T00:06:12.003Z,102099.94
2022-08-30T00:08:50.643Z,102099.56
2022-08-30T00:11:25.631Z,102091.97
2022-08-30T00:13:59.949Z,102100.34
2022-08-30T00:16:33.255Z,102092.41
2022-08-30T00:19:06.013Z,102099.16
2022-08-30T00:21:39.466Z,102096.38
2022-08-30T00:24:13.600Z,102090.03
2022-08-30T00:26:46.841Z,102088.84
2022-08-30T00:29:19.840Z,102094.03
2022-08-30T00:31:52.700Z,102102.78
2022-08-30T00:34:25.597Z,102089.25
2022-08-30T00:36:59.586Z,102085.69
2022-08-30T00:39:33.686Z,102100.41
2022-08-30T00:42:06.878Z,102094.03
2022-08-30T00:44:40.237Z,102094.84
2022-08-30T00:47:13.794Z,102093.66
2022-08-30T00:49:49.073Z,102100.81
2022-08-30T00:52:24.716Z,102099.59
2022-08-30T00:54:58.809Z,102097.59
2022-08-30T00:57:32.850Z,102102.00
2022-08-30T01:00:08.768Z,102096.81
2022-08-30T01:02:42.378Z,102096.84
2022-08-30T01:05:16.274Z,102099.25
2022-08-30T01:07:49.793Z,102099.66
2022-08-30T01:10:24.092Z,102092.50
2022-08-30T01:12:57.314Z,102100.03
2022-08-30T01:15:32.561Z,102097.25
2022-08-30T01:18:07.889Z,102099.66
2022-08-30T01:20:49.212Z,102105.97
2022-08-30T01:23:26.962Z,102099.66
2022-08-30T01:26:03.194Z,102101.22
2022-08-30T01:28:36.534Z,102100.44
2022-08-30T01:31:09.662Z,102098.47
2022-08-30T01:33:42.698Z,102100.44
2022-08-30T01:36:15.775Z,102102.06
2022-08-30T01:38:52.107Z,102099.66
2022-08-30T01:41:27.365Z,102099.66
2022-08-30T01:44:03.120Z,102098.09
2022-08-30T01:46:39.878Z,102095.72
2022-08-30T01:49:16.182Z,102094.91
2022-08-30T01:51:48.942Z,102091.72
2022-08-30T01:54:27.486Z,102086.16
2022-08-30T01:57:10.876Z,102090.16
2022-08-30T01:59:47.704Z,102098.13
2022-08-30T02:02:24.498Z,102090.94
2022-08-30T02:04:58.909Z,102087.75
2022-08-30T02:07:31.892Z,102097.31
2022-08-30T02:10:06.296Z,102095.72
2022-08-30T02:12:39.177Z,102102.09
2022-08-30T02:15:13.003Z,102098.13
2022-08-30T02:17:45.779Z,102101.28
2022-08-30T02:20:19.040Z,102094.94
2022-08-30T02:22:51.806Z,102103.69
2022-08-30T02:25:25.953Z,102095.34
2022-08-30T02:27:58.725Z,102092.56
2022-08-30T02:30:32.159Z,102090.53
2022-08-30T02:33:05.246Z,102090.56
2022-08-30T02:35:37.870Z,102087.75
2022-08-30T02:38:11.553Z,102085.38
2022-08-30T02:40:46.673Z,102078.25
2022-08-30T02:43:19.703Z,102084.59
2022-08-30T02:45:52.564Z,102086.16
2022-08-30T02:48:25.771Z,102083.38
2022-08-30T02:50:58.591Z,102092.53
2022-08-30T02:53:31.442Z,102079.44
2022-08-30T02:56:05.637Z,102085.41
2022-08-30T02:58:40.006Z,102088.97
2022-08-30T03:01:15.068Z,102079.81
2022-08-30T03:03:49.108Z,102078.25
2022-08-30T03:06:21.955Z,102076.66
2022-08-30T03:08:54.692Z,102069.91
2022-08-30T03:11:30.037Z,102064.75
2022-08-30T03:14:03.208Z,102061.97
2022-08-30T03:16:36.043Z,102063.97
2022-08-30T03:19:08.811Z,102061.56
2022-08-30T03:21:41.597Z,102061.59
2022-08-30T03:24:14.602Z,102052.06
2022-08-30T03:26:48.598Z,102057.59
2022-08-30T03:29:21.314Z,102064.75
2022-08-30T03:31:54.155Z,102062.78
2022-08-30T03:34:27.896Z,102064.75
2022-08-30T03:37:01.379Z,102066.34
2022-08-30T03:39:34.705Z,102056.03
2022-08-30T03:42:09.326Z,102055.22
2022-08-30T03:44:42.154Z,102056.81
2022-08-30T03:47:15.039Z,102046.50
2022-08-30T03:49:47.750Z,102049.66
2022-08-30T03:52:20.460Z,102053.63
2022-08-30T03:54:53.214Z,102048.88
2022-08-30T03:57:27.660Z,102052.44
2022-08-30T04:00:00.364Z,102056.00
2022-08-30T04:02:33.298Z,102065.56
2022-08-30T04:05:06.481Z,102052.81
2022-08-30T04:07:39.704Z,102058.78
2022-08-30T04:10:13.016Z,102056.03
2022-08-30T04:12:49.792Z,102052.44
2022-08-30T04:15:22.693Z,102058.38
2022-08-30T04:17:55.499Z,102051.25
2022-08-30T04:20:28.675Z,102053.22
2022-08-30T04:23:02.619Z,102056.03
2022-08-30T04:25:35.847Z,102052.44
2022-08-30T04:28:10.789Z,102058.38
2022-08-30T04:30:45.463Z,102060.75
2022-08-30T04:33:19.218Z,102061.94
2022-08-30T04:35:52.189Z,102063.94
2022-08-30T04:38:30.368Z,102060.75
2022-08-30T04:41:03.817Z,102066.31
2022-08-30T04:43:38.290Z,102061.53
2022-08-30T04:46:11.521Z,102074.22
2022-08-30T04:48:45.089Z,102071.06
2022-08-30T04:51:18.959Z,102075.81
2022-08-30T04:53:51.704Z,102072.66
2022-08-30T04:56:26.086Z,102082.19
2022-08-30T04:59:00.198Z,102077.41
2022-08-30T05:01:45.063Z,102091.28
2022-08-30T05:04:18.621Z,102089.72
2022-08-30T05:06:51.335Z,102094.88
2022-08-30T05:09:24.507Z,102097.25
2022-08-30T05:11:58.378Z,102094.06
2022-08-30T05:14:34.313Z,102093.28
2022-08-30T05:17:06.998Z,102101.59
2022-08-30T05:19:39.966Z,102106.38
2022-08-30T05:22:12.789Z,102100.41
2022-08-30T05:24:45.959Z,102097.22
2022-08-30T05:27:18.693Z,102102.00
2022-08-30T05:29:54.492Z,102103.59
2022-08-30T05:32:27.151Z,102104.34
2022-08-30T05:34:59.878Z,102110.72
2022-08-30T05:37:32.610Z,102101.19
2022-08-30T05:40:07.475Z,102111.09
2022-08-30T05:42:44.282Z,102106.75
2022-08-30T05:45:18.755Z,102106.75
2022-08-30T05:47:51.611Z,102114.69
2022-08-30T05:50:24.379Z,102112.31
2022-08-30T05:52:57.093Z,102105.19
2022-08-30T05:55:29.963Z,102106.75
2022-08-30T05:58:02.964Z,102108.34
2022-08-30T06:00:38.080Z,102108.34
2022-08-30T06:03:12.752Z,102116.28
2022-08-30T06:08:19.808Z,102111.53
2022-08-30T06:10:52.873Z,102115.50
2022-08-30T06:13:25.471Z,102111.94
2022-08-30T06:15:59.905Z,102114.69
2022-08-30T06:18:32.780Z,102113.13
2022-08-30T06:21:06.073Z,102112.34
2022-08-30T06:23:38.777Z,102101.66
2022-08-30T06:26:12.724Z,102106.41
2022-08-30T06:28:45.770Z,102109.97
2022-08-30T06:31:20.536Z,102109.19
2022-08-30T06:33:54.109Z,102102.44
2022-08-30T06:36:27.353Z,102117.13
2022-08-30T06:39:00.372Z,102113.94
2022-08-30T06:41:35.319Z,102108.41
2022-08-30T06:44:09.754Z,102108.81
2022-08-30T06:46:44.197Z,102106.78
2022-08-30T06:49:17.222Z,102111.56
2022-08-30T06:51:49.777Z,102109.59
2022-08-30T06:54:24.307Z,102104.03
2022-08-30T06:56:58.616Z,102106.81
2022-08-30T06:59:32.449Z,102099.66
2022-08-30T07:02:07.224Z,102096.47
2022-08-30T07:04:40.066Z,102107.63
2022-08-30T07:07:13.076Z,102108.22
2022-08-30T07:09:45.633Z,102113.03
2022-08-30T07:12:18.469Z,102116.69
2022-08-30T07:14:51.546Z,102118.56
2022-08-30T07:17:44.577Z,102107.16
2022-08-30T07:20:18.380Z,102109.97
2022-08-30T07:22:55.727Z,102104.44
2022-08-30T07:25:28.454Z,102113.94
2022-08-30T07:28:02.918Z,102120.31
2022-08-30T07:30:36.545Z,102124.28
2022-08-30T07:33:10.781Z,102122.31
2022-08-30T07:35:43.771Z,102119.53
2022-08-30T07:38:16.835Z,102121.13
2022-08-30T07:40:49.723Z,102125.09
2022-08-30T07:43:22.377Z,102121.13
2022-08-30T07:45:56.046Z,102116.75
2022-08-30T07:48:30.605Z,102123.50
2022-08-30T07:51:05.500Z,102127.88
2022-08-30T07:53:38.436Z,102133.44
2022-08-30T07:56:12.076Z,102136.25
2022-08-30T07:58:44.825Z,102139.41
2022-08-30T08:01:19.588Z,102131.88
2022-08-30T08:03:53.859Z,102135.84
2022-08-30T08:06:27.614Z,102136.63
2022-08-30T08:09:07.968Z,102135.44
2022-08-30T08:11:41.365Z,102133.84
2022-08-30T08:16:51.700Z,102133.81
2022-08-30T08:19:26.287Z,102138.16
2022-08-30T08:22:20.847Z,102134.09
2022-08-30T08:24:53.172Z,102131.84
2022-08-30T08:27:25.851Z,102130.06
2022-08-30T08:29:59.328Z,102141.56
2022-08-30T08:32:32.070Z,102138.03
2022-08-30T08:35:06.515Z,102147.50
2022-08-30T08:37:39.396Z,102139.41
2022-08-30T08:40:16.751Z,102143.38
2022-08-30T08:43:00.284Z,102139.97
2022-08-30T08:45:52.922Z,102136.25
2022-08-30T08:48:58.630Z,102141.38
2022-08-30T08:51:52.212Z,102132.06
2022-08-30T08:54:34.022Z,102137.66
2022-08-30T08:57:06.865Z,102135.88
2022-08-30T08:59:39.712Z,102140.97
2022-08-30T09:02:23.949Z,102130.47
2022-08-30T09:05:01.661Z,102140.75
2022-08-30T09:07:42.011Z,102146.94
2022-08-30T09:10:18.269Z,102137.19
2022-08-30T09:13:00.087Z,102139.72
2022-08-30T09:15:38.074Z,102142.09
2022-08-30T09:18:19.865Z,102147.25
2022-08-30T09:20:53.296Z,102132.28
2022-08-30T09:23:32.472Z,102134.22
2022-08-30T09:26:08.916Z,102129.28
2022-08-30T09:28:46.480Z,102139.53
2022-08-30T09:31:25.487Z,102137.88
2022-08-30T09:34:03.631Z,102138.56
2022-08-30T09:36:43.735Z,102147.34
2022-08-30T09:39:20.511Z,102141.69
2022-08-30T09:41:55.414Z,102141.78
2022-08-30T09:44:29.638Z,102143.28
2022-08-30T09:47:05.050Z,102144.16
2022-08-30T09:49:39.928Z,102146.97
2022-08-30T09:52:34.852Z,102150.38
2022-08-30T09:55:23.069Z,102139.72
2022-08-30T09:58:08.546Z,102143.19
2022-08-30T10:00:51.606Z,102144.94
2022-08-30T10:03:40.124Z,102141.09
2022-08-30T10:06:24.085Z,102134.50
2022-08-30T10:09:12.768Z,102137.97
2022-08-30T10:11:56.899Z,102133.59
2022-08-30T10:14:42.878Z,102142.38
2022-08-30T10:17:27.516Z,102140.44
2022-08-30T10:20:12.718Z,102147.41
2022-08-30T10:22:51.777Z,102130.44
2022-08-30T10:25:29.022Z,102134.66
2022-08-30T10:28:11.272Z,102146.41
2022-08-30T10:30:54.189Z,102136.44
2022-08-30T10:33:34.476Z,102144.69
2022-08-30T10:36:11.581Z,102143.91
2022-08-30T10:38:50.003Z,102148.63
2022-08-30T10:41:29.802Z,102149.69
2022-08-30T10:44:12.459Z,102138.66
2022-08-30T10:46:58.871Z,102152.09
2022-08-30T10:49:36.713Z,102147.19
2022-08-30T10:52:26.780Z,102152.22
2022-08-30T10:55:03.450Z,102145.00
2022-08-30T10:57:36.219Z,102148.00
2022-08-30T11:00:14.779Z,102151.16
2022-08-30T11:03:25.114Z,102150.19
2022-08-30T11:06:17.642Z,102137.63
2022-08-30T11:09:05.210Z,102140.81
2022-08-30T11:11:55.034Z,102135.81
2022-08-30T11:14:28.185Z,102148.81
2022-08-30T11:17:02.499Z,102142.28
2022-08-30T11:19:39.415Z,102144.69
2022-08-30T11:22:16.995Z,102142.50
2022-08-30T11:25:09.883Z,102138.72
2022-08-30T11:27:47.601Z,102143.28
2022-08-30T11:30:57.647Z,102139.44
2022-08-30T11:33:46.588Z,102140.69
2022-08-30T11:37:09.759Z,102136.56
2022-08-30T11:39:57.331Z,102137.06
2022-08-30T11:42:37.317Z,102138.03
2022-08-30T11:46:00.266Z,102137.25
2022-08-30T11:48:53.735Z,102132.38
2022-08-30T11:51:50.870Z,102132.84
2022-08-30T11:54:53.040Z,102145.16
2022-08-30T11:57:32.201Z,102126.06
2022-08-30T12:00:10.597Z,102130.97
2022-08-30T12:02:49.015Z,102125.69
2022-08-30T12:05:51.329Z,102125.50
2022-08-30T12:09:02.275Z,102125.94
2022-08-30T12:12:04.816Z,102119.97
2022-08-30T12:14:42.168Z,102117.84
2022-08-30T12:17:39.943Z,102120.50
2022-08-30T12:20:19.490Z,102118.88
2022-08-30T12:22:56.292Z,102120.66
2022-08-30T12:25:32.665Z,102122.47
2022-08-30T12:28:21.542Z,102126.63
2022-08-30T12:30:55.484Z,102129.91
2022-08-30T12:33:36.604Z,102132.56
2022-08-30T12:36:16.949Z,102118.81
2022-08-30T12:38:51.488Z,102130.50
2022-08-30T12:41:25.431Z,102119.78
2022-08-30T12:43:59.046Z,102113.97
2022-08-30T12:46:32.159Z,102110.63
2022-08-30T12:49:05.337Z,102102.25
2022-08-30T12:51:41.232Z,102099.66
2022-08-30T12:54:18.541Z,102101.25
2022-08-30T12:57:03.665Z,102099.91
2022-08-30T12:59:59.283Z,102094.69
2022-08-30T13:02:45.754Z,102104.94
2022-08-30T13:05:34.683Z,102097.94
2022-08-30T13:08:15.373Z,102101.38
2022-08-30T13:11:04.399Z,102100.69
2022-08-30T13:13:44.519Z,102103.88
2022-08-30T13:16:29.376Z,102094.38
2022-08-30T13:19:27.423Z,102098.63
2022-08-30T13:22:01.578Z,102097.34
2022-08-30T13:24:34.383Z,102083.41
2022-08-30T13:27:09.672Z,102088.78
2022-08-30T13:29:42.439Z,102086.00
2022-08-30T13:32:16.635Z,102089.22
2022-08-30T13:34:49.665Z,102088.44
2022-08-30T13:40:17.970Z,102089.72
2022-08-30T13:42:52.217Z,102095.34
2022-08-30T13:45:41.386Z,102093.94
2022-08-30T13:48:17.413Z,102106.47
2022-08-30T13:50:57.728Z,102089.66
2022-08-30T13:56:24.669Z,102083.63
2022-08-30T13:58:59.464Z,102086.81
2022-08-30T14:02:07.439Z,102077.84
2022-08-30T14:04:25.178Z,102086.59
2022-08-30T14:07:16.961Z,102084.44
2022-08-30T14:09:52.070Z,102089.91
2022-08-30T14:15:20.220Z,102084.44
2022-08-30T14:17:52.910Z,102085.53
2022-08-30T14:20:25.831Z,102083.91
2022-08-30T14:22:59.559Z,102085.03
2022-08-30T14:25:32.116Z,102088.09
2022-08-30T14:28:04.982Z,102084.81
2022-08-30T14:30:40.391Z,102084.66
2022-08-30T14:33:15.589Z,102098.50
2022-08-30T14:35:48.354Z,102097.88
2022-08-30T14:38:22.042Z,102090.06
2022-08-30T14:40:55.132Z,102090.25
2022-08-30T14:43:27.832Z,102092.81
2022-08-30T14:46:02.738Z,102094.19
2022-08-30T14:48:37.773Z,102092.50
2022-08-30T14:51:16.588Z,102098.63
2022-08-30T14:53:53.299Z,102095.63
2022-08-30T14:56:26.020Z,102088.28
2022-08-30T14:59:00.538Z,102079.03
2022-08-30T15:01:37.085Z,102076.72
2022-08-30T15:04:11.232Z,102073.75
2022-08-30T15:06:46.020Z,102073.81
2022-08-30T15:09:23.068Z,102077.84
2022-08-30T15:11:59.499Z,102065.97
2022-08-30T15:14:33.499Z,102062.63
2022-08-30T15:17:07.788Z,102064.09
2022-08-30T15:19:40.542Z,102061.66
2022-08-30T15:22:14.335Z,102064.66
2022-08-30T15:24:48.804Z,102066.38
2022-08-30T15:27:21.688Z,102064.38
2022-08-30T15:29:54.363Z,102068.28
2022-08-30T15:32:29.296Z,102056.94
2022-08-30T15:35:05.588Z,102067.22
2022-08-30T15:37:40.552Z,102061.63
2022-08-30T15:40:13.701Z,102049.25
2022-08-30T15:42:46.997Z,102053.84
2022-08-30T15:45:20.005Z,102046.28
2022-08-30T15:47:53.879Z,102050.69
2022-08-30T15:50:27.568Z,102043.81
2022-08-30T15:53:01.994Z,102052.03
2022-08-30T15:55:34.794Z,102052.81
2022-08-30T15:58:07.423Z,102043.44
2022-08-30T16:00:44.802Z,102041.69
2022-08-30T16:03:19.077Z,102034.25
2022-08-30T16:05:52.942Z,102034.31
2022-08-30T16:08:26.113Z,102037.53
2022-08-30T16:10:58.768Z,102035.66
2022-08-30T16:13:32.541Z,102039.09
2022-08-30T16:16:08.818Z,102037.34
2022-08-30T16:18:42.970Z,102032.09
2022-08-30T16:21:18.013Z,102036.59
2022-08-30T16:23:50.974Z,102035.97
2022-08-30T16:26:24.372Z,102025.72
2022-08-30T16:28:58.076Z,102026.13
2022-08-30T16:31:32.722Z,102026.47
2022-08-30T16:34:06.912Z,102028.28
2022-08-30T16:36:40.667Z,102034.44
2022-08-30T16:39:13.805Z,102027.47
2022-08-30T16:41:46.752Z,102022.63
2022-08-30T16:44:21.041Z,102027.53
2022-08-30T16:46:54.086Z,102022.84
2022-08-30T16:49:28.209Z,102022.81
2022-08-30T16:52:01.317Z,102020.97
2022-08-30T16:54:34.130Z,102019.44
2022-08-30T16:57:06.868Z,102021.84
2022-08-30T16:59:39.537Z,102021.94
2022-08-30T17:02:12.293Z,102021.97
2022-08-30T17:04:49.808Z,102022.53
2022-08-30T17:07:25.220Z,102024.38
2022-08-30T17:09:58.065Z,102014.59
2022-08-30T17:12:31.105Z,102017.47
2022-08-30T17:15:05.554Z,102021.34
2022-08-30T17:17:39.040Z,102013.38
2022-08-30T17:20:18.234Z,102018.28
2022-08-30T17:22:50.983Z,102020.84
2022-08-30T17:25:25.765Z,102021.06
2022-08-30T17:28:02.583Z,102017.94
2022-08-30T17:30:36.553Z,102024.94
2022-08-30T17:33:11.108Z,102025.44
2022-08-30T17:35:45.546Z,102023.47
2022-08-30T17:38:19.413Z,102037.47
2022-08-30T17:40:52.460Z,102039.91
2022-08-30T17:43:25.072Z,102048.75
2022-08-30T17:46:05.428Z,102032.00
2022-08-30T17:48:39.003Z,102038.56
2022-08-30T17:51:14.389Z,102035.63
2022-08-30T17:53:47.343Z,102044.72
2022-08-30T17:56:23.320Z,102048.56
2022-08-30T17:59:06.025Z,102048.75
2022-08-30T18:01:41.662Z,102050.69
2022-08-30T18:04:20.471Z,102051.75
2022-08-30T18:06:54.923Z,102053.78
2022-08-30T18:09:31.800Z,102055.50
2022-08-30T18:12:06.771Z,102063.19
2022-08-30T18:14:40.067Z,102059.56
2022-08-30T18:17:12.746Z,102062.72
2022-08-30T18:19:46.695Z,102069.63
2022-08-30T18:22:20.992Z,102070.41
2022-08-30T18:24:53.674Z,102073.59
2022-08-30T18:27:28.299Z,102069.34
2022-08-30T18:30:01.073Z,102084.28
2022-08-30T18:32:36.058Z,102086.09
2022-08-30T18:35:11.190Z,102082.41
2022-08-30T18:37:45.339Z,102094.94
2022-08-30T18:40:19.049Z,102099.06
2022-08-30T18:42:51.803Z,102095.50
2022-08-30T18:45:25.058Z,102093.50
2022-08-30T18:47:58.787Z,102096.84
2022-08-30T18:50:32.184Z,102095.56
2022-08-30T18:53:06.266Z,102100.41
2022-08-30T18:55:41.912Z,102094.47
2022-08-30T18:58:14.441Z,102100.16
2022-08-30T19:00:51.115Z,102100.75
2022-08-30T19:03:24.007Z,102110.59
2022-08-30T19:05:56.765Z,102114.50
2022-08-30T19:08:31.379Z,102114.25
2022-08-30T19:11:05.037Z,102116.91
2022-08-30T19:13:40.350Z,102125.06
2022-08-30T19:16:13.834Z,102120.06
2022-08-30T19:18:46.533Z,102116.97
2022-08-30T19:21:21.407Z,102127.22
2022-08-30T19:23:55.739Z,102129.06
2022-08-30T19:26:28.474Z,102132.84
2022-08-30T19:29:02.280Z,102122.97
2022-08-30T19:31:35.601Z,102133.00
2022-08-30T19:34:08.329Z,102126.72
2022-08-30T19:36:41.063Z,102126.16
2022-08-30T19:39:15.380Z,102133.63
2022-08-30T19:41:50.236Z,102130.09
2022-08-30T19:44:22.945Z,102131.78
2022-08-30T19:46:56.887Z,102136.00
2022-08-30T19:49:30.750Z,102130.16
2022-08-30T19:52:04.773Z,102127.69
2022-08-30T19:54:39.040Z,102131.00
2022-08-30T19:57:14.274Z,102129.28
2022-08-30T19:59:46.891Z,102123.91
2022-08-30T20:02:20.808Z,102137.00
2022-08-30T20:04:53.612Z,102132.28
2022-08-30T20:07:28.293Z,102131.66
2022-08-30T20:10:05.618Z,102140.06
2022-08-30T20:12:39.862Z,102131.78
2022-08-30T20:15:19.430Z,102133.16
2022-08-30T20:18:14.505Z,102136.66
2022-08-30T20:20:49.932Z,102136.72
2022-08-30T20:23:25.683Z,102136.72
2022-08-30T20:26:00.898Z,102148.84
2022-08-30T20:28:33.967Z,102135.09
2022-08-30T20:31:08.431Z,102148.19
2022-08-30T20:33:41.365Z,102143.34
2022-08-30T20:36:14.030Z,102140.44
2022-08-30T20:38:47.630Z,102142.03
2022-08-30T20:41:22.241Z,102143.16
2022-08-30T20:43:55.091Z,102148.22
2022-08-30T20:46:33.391Z,102139.78
2022-08-30T20:49:06.851Z,102142.84
2022-08-30T20:51:39.862Z,102147.38
2022-08-30T20:54:13.822Z,102148.19
2022-08-30T20:56:47.914Z,102147.75
2022-08-30T20:59:21.923Z,102152.91
2022-08-30T21:01:55.096Z,102152.13
2022-08-30T21:04:28.208Z,102145.66
2022-08-30T21:07:01.126Z,102153.69
2022-08-30T21:09:33.883Z,102152.91
2022-08-30T21:12:08.386Z,102148.59
2022-08-30T21:14:41.351Z,102151.41
2022-08-30T21:17:14.091Z,102151.41
2022-08-30T21:19:47.292Z,102154.28
2022-08-30T21:22:20.115Z,102148.28
2022-08-30T21:24:53.953Z,102150.72
2022-08-30T21:27:28.160Z,102151.50
2022-08-30T21:30:01.505Z,102155.09
2022-08-30T21:32:34.767Z,102148.72
2022-08-30T21:35:22.952Z,102142.00
2022-08-30T21:37:55.868Z,102146.75
2022-08-30T21:40:29.281Z,102157.88
2022-08-30T21:43:06.038Z,102155.50
2022-08-30T21:45:39.667Z,102152.00
2022-08-30T21:48:13.983Z,102159.16
2022-08-30T21:50:47.050Z,102152.41
2022-08-30T21:53:20.158Z,102149.66
2022-08-30T21:55:53.117Z,102156.38
2022-08-30T21:58:27.767Z,102161.16
2022-08-30T22:01:00.506Z,102164.34
2022-08-30T22:03:33.239Z,102162.38
2022-08-30T22:06:08.034Z,102156.78
2022-08-30T22:08:43.124Z,102163.53
2022-08-30T22:11:18.294Z,102162.78
2022-08-30T22:13:54.287Z,102156.38
2022-08-30T22:16:27.961Z,102162.72
2022-08-30T22:19:01.907Z,102170.69
2022-08-30T22:21:36.765Z,102170.31
2022-08-30T22:24:10.490Z,102163.19
2022-08-30T22:26:43.392Z,102171.59
2022-08-30T22:29:17.590Z,102166.81
2022-08-30T22:31:50.458Z,102162.84
2022-08-30T22:34:23.385Z,102167.59
2022-08-30T22:36:55.963Z,102166.06
2022-08-30T22:39:28.743Z,102166.91
2022-08-30T22:42:01.853Z,102165.28
2022-08-30T22:44:35.732Z,102178.00
2022-08-30T22:47:08.739Z,102163.72
2022-08-30T22:49:41.435Z,102161.31
2022-08-30T22:52:14.346Z,102162.94
2022-08-30T22:54:48.171Z,102158.16
2022-08-30T22:57:20.853Z,102157.41
2022-08-30T22:59:55.120Z,102161.34
2022-08-30T23:02:27.864Z,102152.66
2022-08-30T23:05:01.552Z,102158.19
2022-08-30T23:07:34.826Z,102160.19
2022-08-30T23:10:09.151Z,102163.03
2022-08-30T23:12:41.886Z,102162.22
2022-08-30T23:15:16.899Z,102167.38
2022-08-30T23:17:50.440Z,102161.44
2022-08-30T23:20:23.997Z,102159.09
2022-08-30T23:22:58.808Z,102159.84
2022-08-30T23:25:52.031Z,102164.25
2022-08-30T23:28:42.865Z,102165.84
2022-08-30T23:31:35.743Z,102158.31
2022-08-30T23:34:26.180Z,102165.50
2022-08-30T23:37:16.423Z,102155.13
2022-08-30T23:40:07.179Z,102156.75
2022-08-30T23:42:57.549Z,102155.53
2022-08-30T23:45:48.090Z,102165.50
2022-08-30T23:48:39.831Z,102161.53
2022-08-30T23:51:41.171Z,102162.34
2022-08-30T23:54:31.659Z,102162.31
2022-08-30T23:57:23.624Z,102169.50
